sensor_id;sensor_type;location;lat;lon;timestamp;temperature;humidity
21261;DHT22;10788;47.930;9.766;2023-11-19T00:02:12;5.90;99.90
21261;DHT22;10788;47.930;9.766;2023-11-19T00:04:38;5.90;99.90
21261;DHT22;10788;47.930;9.766;2023-11-19T00:07:07;5.90;99.90
21261;DHT22;10788;47.930;9.766;2023-11-19T00:09:36;5.90;99.90
21261;DHT22;10788;47.930;9.766;2023-11-19T00:12:03;5.90;99.90
21261;DHT22;10788;47.930;9.766;2023-11-19T00:14:30;5.90;99.90
21261;DHT22;10788;47.930;9.766;2023-11-19T00:16:56;5.90;99.90
21261;DHT22;10788;47.930;9.766;2023-11-19T00:19:21;5.90;99.90
21261;DHT22;10788;47.930;9.766;2023-11-19T00:21:47;5.90;99.90
21261;DHT22;10788;47.930;9.766;2023-11-19T00:24:13;6.00;99.90
21261;DHT22;10788;47.930;9.766;2023-11-19T00:26:41;6.00;99.90
21261;DHT22;10788;47.930;9.766;2023-11-19T00:29:07;6.00;99.90
21261;DHT22;10788;47.930;9.766;2023-11-19T00:31:33;6.00;99.90
21261;DHT22;10788;47.930;9.766;2023-11-19T00:33:58;6.10;99.90
21261;DHT22;10788;47.930;9.766;2023-11-19T00:36:24;6.10;99.90
21261;DHT22;10788;47.930;9.766;2023-11-19T00:38:51;6.10;99.90
21261;DHT22;10788;47.930;9.766;2023-11-19T00:41:18;6.10;99.90
21261;DHT22;10788;47.930;9.766;2023-11-19T00:43:44;6.10;99.90
21261;DHT22;10788;47.930;9.766;2023-11-19T00:46:09;6.10;99.90
21261;DHT22;10788;47.930;9.766;2023-11-19T00:48:36;6.20;99.90
21261;DHT22;10788;47.930;9.766;2023-11-19T00:51:02;6.10;99.90
21261;DHT22;10788;47.930;9.766;2023-11-19T00:53:29;6.20;99.90
21261;DHT22;10788;47.930;9.766;2023-11-19T00:55:55;6.20;99.90
21261;DHT22;10788;47.930;9.766;2023-11-19T00:58:21;6.20;99.90
21261;DHT22;10788;47.930;9.766;2023-11-19T01:00:47;6.20;99.90
21261;DHT22;10788;47.930;9.766;2023-11-19T01:03:13;6.20;99.90
21261;DHT22;10788;47.930;9.766;2023-11-19T01:05:40;6.20;99.90
21261;DHT22;10788;47.930;9.766;2023-11-19T01:08:06;6.20;99.90
21261;DHT22;10788;47.930;9.766;2023-11-19T01:10:32;6.20;99.90
21261;DHT22;10788;47.930;9.766;2023-11-19T01:12:57;6.20;99.90
21261;DHT22;10788;47.930;9.766;2023-11-19T01:15:23;6.30;99.90
21261;DHT22;10788;47.930;9.766;2023-11-19T01:17:48;6.20;99.90
21261;DHT22;10788;47.930;9.766;2023-11-19T01:20:14;6.30;99.90
21261;DHT22;10788;47.930;9.766;2023-11-19T01:22:40;6.20;99.90
21261;DHT22;10788;47.930;9.766;2023-11-19T01:25:06;6.30;99.90
21261;DHT22;10788;47.930;9.766;2023-11-19T01:27:32;6.30;99.90
21261;DHT22;10788;47.930;9.766;2023-11-19T01:30:00;6.30;99.90
21261;DHT22;10788;47.930;9.766;2023-11-19T01:32:31;6.30;99.90
21261;DHT22;10788;47.930;9.766;2023-11-19T01:34:57;6.30;99.90
21261;DHT22;10788;47.930;9.766;2023-11-19T01:37:23;6.30;99.90
21261;DHT22;10788;47.930;9.766;2023-11-19T01:39:48;6.40;99.90
21261;DHT22;10788;47.930;9.766;2023-11-19T01:42:14;6.30;99.90
21261;DHT22;10788;47.930;9.766;2023-11-19T01:44:41;6.40;99.90
21261;DHT22;10788;47.930;9.766;2023-11-19T01:47:07;6.40;99.90
21261;DHT22;10788;47.930;9.766;2023-11-19T01:49:33;6.40;99.90
21261;DHT22;10788;47.930;9.766;2023-11-19T01:51:59;6.40;99.90
21261;DHT22;10788;47.930;9.766;2023-11-19T01:54:25;6.40;99.90
21261;DHT22;10788;47.930;9.766;2023-11-19T01:56:52;6.40;99.90
21261;DHT22;10788;47.930;9.766;2023-11-19T01:59:22;6.50;99.90
21261;DHT22;10788;47.930;9.766;2023-11-19T02:01:54;6.50;99.90
21261;DHT22;10788;47.930;9.766;2023-11-19T02:04:20;6.50;99.90
21261;DHT22;10788;47.930;9.766;2023-11-19T02:06:48;6.50;99.90
21261;DHT22;10788;47.930;9.766;2023-11-19T02:09:18;6.50;99.90
21261;DHT22;10788;47.930;9.766;2023-11-19T02:11:45;6.70;99.90
21261;DHT22;10788;47.930;9.766;2023-11-19T02:14:15;6.70;99.90
21261;DHT22;10788;47.930;9.766;2023-11-19T02:16:40;6.60;99.90
21261;DHT22;10788;47.930;9.766;2023-11-19T02:19:06;6.60;99.90
21261;DHT22;10788;47.930;9.766;2023-11-19T02:21:31;6.70;99.90
21261;DHT22;10788;47.930;9.766;2023-11-19T02:23:57;6.70;99.90
21261;DHT22;10788;47.930;9.766;2023-11-19T02:28:48;6.60;99.90
21261;DHT22;10788;47.930;9.766;2023-11-19T02:31:14;6.60;99.90
21261;DHT22;10788;47.930;9.766;2023-11-19T02:33:40;6.70;99.90
21261;DHT22;10788;47.930;9.766;2023-11-19T02:36:07;6.70;99.90
21261;DHT22;10788;47.930;9.766;2023-11-19T02:38:34;6.70;99.90
21261;DHT22;10788;47.930;9.766;2023-11-19T02:41:01;6.70;99.90
21261;DHT22;10788;47.930;9.766;2023-11-19T02:43:27;6.70;99.90
21261;DHT22;10788;47.930;9.766;2023-11-19T02:45:53;6.80;99.90
21261;DHT22;10788;47.930;9.766;2023-11-19T02:48:21;6.80;99.90
21261;DHT22;10788;47.930;9.766;2023-11-19T02:50:46;6.70;99.90
21261;DHT22;10788;47.930;9.766;2023-11-19T02:53:13;6.80;99.90
21261;DHT22;10788;47.930;9.766;2023-11-19T02:55:39;6.70;99.90
21261;DHT22;10788;47.930;9.766;2023-11-19T02:58:06;6.80;99.90
21261;DHT22;10788;47.930;9.766;2023-11-19T03:00:39;6.80;99.90
21261;DHT22;10788;47.930;9.766;2023-11-19T03:03:13;6.70;99.90
21261;DHT22;10788;47.930;9.766;2023-11-19T03:05:48;7.00;99.90
21261;DHT22;10788;47.930;9.766;2023-11-19T03:08:17;6.90;99.90
21261;DHT22;10788;47.930;9.766;2023-11-19T03:10:43;6.90;99.90
21261;DHT22;10788;47.930;9.766;2023-11-19T03:13:13;6.90;99.90
21261;DHT22;10788;47.930;9.766;2023-11-19T03:15:42;6.90;99.90
21261;DHT22;10788;47.930;9.766;2023-11-19T03:18:08;6.90;99.90
21261;DHT22;10788;47.930;9.766;2023-11-19T03:20:34;6.90;99.90
21261;DHT22;10788;47.930;9.766;2023-11-19T03:22:59;6.90;99.90
21261;DHT22;10788;47.930;9.766;2023-11-19T03:25:28;6.90;99.90
21261;DHT22;10788;47.930;9.766;2023-11-19T03:28:03;6.90;99.90
21261;DHT22;10788;47.930;9.766;2023-11-19T03:30:30;6.90;99.90
21261;DHT22;10788;47.930;9.766;2023-11-19T03:32:57;6.90;99.90
21261;DHT22;10788;47.930;9.766;2023-11-19T03:35:23;6.80;99.90
21261;DHT22;10788;47.930;9.766;2023-11-19T03:37:50;7.00;99.90
21261;DHT22;10788;47.930;9.766;2023-11-19T03:40:17;7.00;99.90
21261;DHT22;10788;47.930;9.766;2023-11-19T03:42:46;7.00;99.90
21261;DHT22;10788;47.930;9.766;2023-11-19T03:45:13;7.00;99.90
21261;DHT22;10788;47.930;9.766;2023-11-19T03:47:38;6.90;99.90
21261;DHT22;10788;47.930;9.766;2023-11-19T03:50:05;6.80;99.90
21261;DHT22;10788;47.930;9.766;2023-11-19T03:52:33;6.90;99.90
21261;DHT22;10788;47.930;9.766;2023-11-19T03:54:59;6.90;99.90
21261;DHT22;10788;47.930;9.766;2023-11-19T03:57:24;7.00;99.90
21261;DHT22;10788;47.930;9.766;2023-11-19T03:59:50;7.20;99.90
21261;DHT22;10788;47.930;9.766;2023-11-19T04:02:16;7.00;99.90
21261;DHT22;10788;47.930;9.766;2023-11-19T04:04:42;7.00;99.90
21261;DHT22;10788;47.930;9.766;2023-11-19T04:07:08;7.10;99.90
21261;DHT22;10788;47.930;9.766;2023-11-19T04:09:33;7.00;99.90
21261;DHT22;10788;47.930;9.766;2023-11-19T04:12:00;7.10;99.90
21261;DHT22;10788;47.930;9.766;2023-11-19T04:14:26;7.10;99.90
21261;DHT22;10788;47.930;9.766;2023-11-19T04:16:52;7.10;99.90
21261;DHT22;10788;47.930;9.766;2023-11-19T04:19:21;7.10;99.90
21261;DHT22;10788;47.930;9.766;2023-11-19T04:21:47;7.10;99.90
21261;DHT22;10788;47.930;9.766;2023-11-19T04:24:13;7.20;99.90
21261;DHT22;10788;47.930;9.766;2023-11-19T04:26:43;7.30;99.90
21261;DHT22;10788;47.930;9.766;2023-11-19T04:29:12;7.20;99.90
21261;DHT22;10788;47.930;9.766;2023-11-19T04:31:38;7.30;99.90
21261;DHT22;10788;47.930;9.766;2023-11-19T04:34:05;7.30;99.90
21261;DHT22;10788;47.930;9.766;2023-11-19T04:36:32;7.20;99.90
21261;DHT22;10788;47.930;9.766;2023-11-19T04:38:58;7.30;99.90
21261;DHT22;10788;47.930;9.766;2023-11-19T04:41:25;7.30;99.90
21261;DHT22;10788;47.930;9.766;2023-11-19T04:43:51;7.30;99.90
21261;DHT22;10788;47.930;9.766;2023-11-19T04:46:16;7.30;99.90
21261;DHT22;10788;47.930;9.766;2023-11-19T04:48:42;7.30;99.90
21261;DHT22;10788;47.930;9.766;2023-11-19T04:51:08;7.30;99.90
21261;DHT22;10788;47.930;9.766;2023-11-19T04:53:35;7.30;99.90
21261;DHT22;10788;47.930;9.766;2023-11-19T04:56:00;7.30;99.90
21261;DHT22;10788;47.930;9.766;2023-11-19T04:58:28;7.30;99.90
21261;DHT22;10788;47.930;9.766;2023-11-19T05:00:54;7.30;99.90
21261;DHT22;10788;47.930;9.766;2023-11-19T05:03:20;7.30;99.90
21261;DHT22;10788;47.930;9.766;2023-11-19T05:05:45;7.40;99.90
21261;DHT22;10788;47.930;9.766;2023-11-19T05:08:11;7.30;99.90
21261;DHT22;10788;47.930;9.766;2023-11-19T05:10:37;7.30;99.90
21261;DHT22;10788;47.930;9.766;2023-11-19T05:13:02;7.30;99.90
21261;DHT22;10788;47.930;9.766;2023-11-19T05:15:28;7.40;99.90
21261;DHT22;10788;47.930;9.766;2023-11-19T05:17:53;7.30;99.90
21261;DHT22;10788;47.930;9.766;2023-11-19T05:20:19;7.30;99.90
21261;DHT22;10788;47.930;9.766;2023-11-19T05:22:45;7.30;99.90
21261;DHT22;10788;47.930;9.766;2023-11-19T05:25:11;7.30;99.90
21261;DHT22;10788;47.930;9.766;2023-11-19T05:27:37;7.30;99.90
21261;DHT22;10788;47.930;9.766;2023-11-19T05:30:04;7.30;99.90
21261;DHT22;10788;47.930;9.766;2023-11-19T05:32:33;7.30;99.90
21261;DHT22;10788;47.930;9.766;2023-11-19T05:34:58;7.40;99.90
21261;DHT22;10788;47.930;9.766;2023-11-19T05:37:24;7.40;99.90
21261;DHT22;10788;47.930;9.766;2023-11-19T05:39:50;7.40;99.90
21261;DHT22;10788;47.930;9.766;2023-11-19T05:42:16;7.50;99.90
21261;DHT22;10788;47.930;9.766;2023-11-19T05:44:42;7.50;99.90
21261;DHT22;10788;47.930;9.766;2023-11-19T05:47:08;7.50;99.90
21261;DHT22;10788;47.930;9.766;2023-11-19T05:49:33;7.60;99.90
21261;DHT22;10788;47.930;9.766;2023-11-19T05:51:59;7.50;99.90
21261;DHT22;10788;47.930;9.766;2023-11-19T05:54:27;7.60;99.90
21261;DHT22;10788;47.930;9.766;2023-11-19T05:56:52;7.60;99.90
21261;DHT22;10788;47.930;9.766;2023-11-19T05:59:20;7.60;99.90
21261;DHT22;10788;47.930;9.766;2023-11-19T06:01:45;7.60;99.90
21261;DHT22;10788;47.930;9.766;2023-11-19T06:04:11;7.70;99.90
21261;DHT22;10788;47.930;9.766;2023-11-19T06:06:37;7.60;99.90
21261;DHT22;10788;47.930;9.766;2023-11-19T06:09:03;7.70;99.90
21261;DHT22;10788;47.930;9.766;2023-11-19T06:11:29;7.50;99.90
21261;DHT22;10788;47.930;9.766;2023-11-19T06:13:55;7.70;99.90
21261;DHT22;10788;47.930;9.766;2023-11-19T06:16:21;7.70;99.90
21261;DHT22;10788;47.930;9.766;2023-11-19T06:18:47;7.80;99.90
21261;DHT22;10788;47.930;9.766;2023-11-19T06:21:13;7.70;99.90
21261;DHT22;10788;47.930;9.766;2023-11-19T06:23:38;7.70;99.90
21261;DHT22;10788;47.930;9.766;2023-11-19T06:26:04;7.90;99.90
21261;DHT22;10788;47.930;9.766;2023-11-19T06:28:31;7.80;99.90
21261;DHT22;10788;47.930;9.766;2023-11-19T06:30:57;7.80;99.90
21261;DHT22;10788;47.930;9.766;2023-11-19T06:33:24;7.90;99.90
21261;DHT22;10788;47.930;9.766;2023-11-19T06:35:49;7.90;99.90
21261;DHT22;10788;47.930;9.766;2023-11-19T06:38:15;8.00;99.90
21261;DHT22;10788;47.930;9.766;2023-11-19T06:40:41;8.10;99.90
21261;DHT22;10788;47.930;9.766;2023-11-19T06:43:06;8.00;99.90
21261;DHT22;10788;47.930;9.766;2023-11-19T06:45:35;8.30;99.90
21261;DHT22;10788;47.930;9.766;2023-11-19T06:48:05;8.30;99.90
21261;DHT22;10788;47.930;9.766;2023-11-19T06:50:31;8.20;99.90
21261;DHT22;10788;47.930;9.766;2023-11-19T06:52:57;8.20;99.90
21261;DHT22;10788;47.930;9.766;2023-11-19T06:55:22;8.30;99.90
21261;DHT22;10788;47.930;9.766;2023-11-19T06:57:48;8.30;99.90
21261;DHT22;10788;47.930;9.766;2023-11-19T07:00:13;8.40;99.90
21261;DHT22;10788;47.930;9.766;2023-11-19T07:02:39;8.30;99.90
21261;DHT22;10788;47.930;9.766;2023-11-19T07:05:05;8.20;99.90
21261;DHT22;10788;47.930;9.766;2023-11-19T07:07:32;8.40;99.90
21261;DHT22;10788;47.930;9.766;2023-11-19T07:09:58;8.30;99.90
21261;DHT22;10788;47.930;9.766;2023-11-19T07:12:24;8.40;99.90
21261;DHT22;10788;47.930;9.766;2023-11-19T07:14:52;8.40;99.90
21261;DHT22;10788;47.930;9.766;2023-11-19T07:17:18;8.40;99.90
21261;DHT22;10788;47.930;9.766;2023-11-19T07:19:46;8.40;99.90
21261;DHT22;10788;47.930;9.766;2023-11-19T07:22:11;8.40;99.90
21261;DHT22;10788;47.930;9.766;2023-11-19T07:24:39;8.40;99.90
21261;DHT22;10788;47.930;9.766;2023-11-19T07:27:05;8.50;99.90
21261;DHT22;10788;47.930;9.766;2023-11-19T07:29:32;8.50;99.90
21261;DHT22;10788;47.930;9.766;2023-11-19T07:31:57;8.60;99.90
21261;DHT22;10788;47.930;9.766;2023-11-19T07:34:24;8.60;99.90
21261;DHT22;10788;47.930;9.766;2023-11-19T07:36:50;8.60;99.90
21261;DHT22;10788;47.930;9.766;2023-11-19T07:39:15;8.60;99.90
21261;DHT22;10788;47.930;9.766;2023-11-19T07:41:41;8.70;99.90
21261;DHT22;10788;47.930;9.766;2023-11-19T07:44:07;8.70;99.90
21261;DHT22;10788;47.930;9.766;2023-11-19T07:46:32;8.60;99.90
21261;DHT22;10788;47.930;9.766;2023-11-19T07:48:58;8.70;99.90
21261;DHT22;10788;47.930;9.766;2023-11-19T07:51:24;8.80;99.90
21261;DHT22;10788;47.930;9.766;2023-11-19T07:53:49;8.80;99.90
21261;DHT22;10788;47.930;9.766;2023-11-19T07:56:15;8.80;99.90
21261;DHT22;10788;47.930;9.766;2023-11-19T07:58:41;8.80;99.90
21261;DHT22;10788;47.930;9.766;2023-11-19T08:01:07;8.80;99.90
21261;DHT22;10788;47.930;9.766;2023-11-19T08:03:32;8.80;99.90
21261;DHT22;10788;47.930;9.766;2023-11-19T08:06:01;8.90;99.90
21261;DHT22;10788;47.930;9.766;2023-11-19T08:08:27;8.90;99.90
21261;DHT22;10788;47.930;9.766;2023-11-19T08:10:55;8.90;99.90
21261;DHT22;10788;47.930;9.766;2023-11-19T08:13:23;9.00;99.90
21261;DHT22;10788;47.930;9.766;2023-11-19T08:15:49;9.00;99.90
21261;DHT22;10788;47.930;9.766;2023-11-19T08:18:14;9.00;99.90
21261;DHT22;10788;47.930;9.766;2023-11-19T08:20:40;9.00;99.90
21261;DHT22;10788;47.930;9.766;2023-11-19T08:23:06;9.10;99.90
21261;DHT22;10788;47.930;9.766;2023-11-19T08:25:33;9.10;99.90
21261;DHT22;10788;47.930;9.766;2023-11-19T08:28:01;9.20;99.90
21261;DHT22;10788;47.930;9.766;2023-11-19T08:30:27;9.20;99.90
21261;DHT22;10788;47.930;9.766;2023-11-19T08:32:52;9.30;99.90
21261;DHT22;10788;47.930;9.766;2023-11-19T08:35:18;9.30;99.90
21261;DHT22;10788;47.930;9.766;2023-11-19T08:37:43;9.40;99.90
21261;DHT22;10788;47.930;9.766;2023-11-19T08:40:11;9.40;99.90
21261;DHT22;10788;47.930;9.766;2023-11-19T08:42:38;9.40;99.90
21261;DHT22;10788;47.930;9.766;2023-11-19T08:45:05;9.40;99.90
21261;DHT22;10788;47.930;9.766;2023-11-19T08:47:30;9.40;99.90
21261;DHT22;10788;47.930;9.766;2023-11-19T08:49:56;9.50;99.90
21261;DHT22;10788;47.930;9.766;2023-11-19T08:52:22;9.60;99.90
21261;DHT22;10788;47.930;9.766;2023-11-19T08:54:47;9.60;99.90
21261;DHT22;10788;47.930;9.766;2023-11-19T08:57:13;9.80;99.90
21261;DHT22;10788;47.930;9.766;2023-11-19T08:59:38;9.70;99.90
21261;DHT22;10788;47.930;9.766;2023-11-19T09:02:05;9.70;99.90
21261;DHT22;10788;47.930;9.766;2023-11-19T09:04:32;9.70;99.90
21261;DHT22;10788;47.930;9.766;2023-11-19T09:06:58;9.90;99.90
21261;DHT22;10788;47.930;9.766;2023-11-19T09:09:23;9.80;99.90
21261;DHT22;10788;47.930;9.766;2023-11-19T09:11:49;9.90;99.90
21261;DHT22;10788;47.930;9.766;2023-11-19T09:14:15;9.90;99.90
21261;DHT22;10788;47.930;9.766;2023-11-19T09:16:41;9.90;99.90
21261;DHT22;10788;47.930;9.766;2023-11-19T09:19:06;9.90;99.90
21261;DHT22;10788;47.930;9.766;2023-11-19T09:21:32;9.90;99.90
21261;DHT22;10788;47.930;9.766;2023-11-19T09:23:59;10.00;99.90
21261;DHT22;10788;47.930;9.766;2023-11-19T09:26:25;9.90;99.90
21261;DHT22;10788;47.930;9.766;2023-11-19T09:28:51;9.90;99.90
21261;DHT22;10788;47.930;9.766;2023-11-19T09:31:17;10.00;99.90
21261;DHT22;10788;47.930;9.766;2023-11-19T09:33:44;10.00;99.90
21261;DHT22;10788;47.930;9.766;2023-11-19T09:36:11;10.20;99.90
21261;DHT22;10788;47.930;9.766;2023-11-19T09:38:39;10.10;99.90
21261;DHT22;10788;47.930;9.766;2023-11-19T09:41:05;10.00;99.90
21261;DHT22;10788;47.930;9.766;2023-11-19T09:43:35;10.10;99.90
21261;DHT22;10788;47.930;9.766;2023-11-19T09:46:10;10.10;99.90
21261;DHT22;10788;47.930;9.766;2023-11-19T09:48:39;10.10;99.90
21261;DHT22;10788;47.930;9.766;2023-11-19T09:51:06;10.20;99.90
21261;DHT22;10788;47.930;9.766;2023-11-19T09:53:32;10.10;99.90
21261;DHT22;10788;47.930;9.766;2023-11-19T09:56:02;10.10;99.90
21261;DHT22;10788;47.930;9.766;2023-11-19T09:58:29;10.10;99.90
21261;DHT22;10788;47.930;9.766;2023-11-19T10:00:57;10.20;99.90
21261;DHT22;10788;47.930;9.766;2023-11-19T10:03:27;10.10;99.90
21261;DHT22;10788;47.930;9.766;2023-11-19T10:05:55;10.20;99.90
21261;DHT22;10788;47.930;9.766;2023-11-19T10:08:21;10.20;99.90
21261;DHT22;10788;47.930;9.766;2023-11-19T10:10:47;10.30;99.90
21261;DHT22;10788;47.930;9.766;2023-11-19T10:13:13;10.30;99.90
21261;DHT22;10788;47.930;9.766;2023-11-19T10:15:40;10.30;99.90
21261;DHT22;10788;47.930;9.766;2023-11-19T10:18:06;10.30;99.90
21261;DHT22;10788;47.930;9.766;2023-11-19T10:20:40;10.50;99.90
21261;DHT22;10788;47.930;9.766;2023-11-19T10:23:06;10.30;99.90
21261;DHT22;10788;47.930;9.766;2023-11-19T10:25:33;10.40;99.90
21261;DHT22;10788;47.930;9.766;2023-11-19T10:27:59;10.40;99.90
21261;DHT22;10788;47.930;9.766;2023-11-19T10:30:30;10.50;99.90
21261;DHT22;10788;47.930;9.766;2023-11-19T10:35:57;10.40;99.90
21261;DHT22;10788;47.930;9.766;2023-11-19T10:38:25;10.40;99.90
21261;DHT22;10788;47.930;9.766;2023-11-19T10:40:52;10.50;99.90
21261;DHT22;10788;47.930;9.766;2023-11-19T10:43:22;10.50;99.90
21261;DHT22;10788;47.930;9.766;2023-11-19T10:45:48;10.60;99.90
21261;DHT22;10788;47.930;9.766;2023-11-19T10:48:14;10.50;99.90
21261;DHT22;10788;47.930;9.766;2023-11-19T10:50:42;10.60;99.90
21261;DHT22;10788;47.930;9.766;2023-11-19T10:53:10;10.60;99.90
21261;DHT22;10788;47.930;9.766;2023-11-19T10:55:37;10.50;99.90
21261;DHT22;10788;47.930;9.766;2023-11-19T10:58:10;10.60;99.90
21261;DHT22;10788;47.930;9.766;2023-11-19T11:00:48;10.70;99.90
21261;DHT22;10788;47.930;9.766;2023-11-19T11:03:25;10.70;99.90
21261;DHT22;10788;47.930;9.766;2023-11-19T11:05:52;10.80;99.90
21261;DHT22;10788;47.930;9.766;2023-11-19T11:08:19;10.90;99.90
21261;DHT22;10788;47.930;9.766;2023-11-19T11:13:11;10.90;99.90
21261;DHT22;10788;47.930;9.766;2023-11-19T11:15:39;10.90;99.90
21261;DHT22;10788;47.930;9.766;2023-11-19T11:18:08;11.00;99.90
21261;DHT22;10788;47.930;9.766;2023-11-19T11:20:34;11.10;99.90
21261;DHT22;10788;47.930;9.766;2023-11-19T11:25:53;11.10;99.90
21261;DHT22;10788;47.930;9.766;2023-11-19T11:28:39;11.20;99.90
21261;DHT22;10788;47.930;9.766;2023-11-19T11:31:40;11.10;99.90
21261;DHT22;10788;47.930;9.766;2023-11-19T11:34:30;11.20;99.90
21261;DHT22;10788;47.930;9.766;2023-11-19T11:39:35;11.20;99.90
21261;DHT22;10788;47.930;9.766;2023-11-19T11:44:58;11.20;99.90
21261;DHT22;10788;47.930;9.766;2023-11-19T11:47:25;11.20;99.90
21261;DHT22;10788;47.930;9.766;2023-11-19T11:49:52;11.20;99.90
21261;DHT22;10788;47.930;9.766;2023-11-19T11:52:17;11.20;99.90
21261;DHT22;10788;47.930;9.766;2023-11-19T11:54:44;11.30;99.90
21261;DHT22;10788;47.930;9.766;2023-11-19T11:57:10;11.10;99.90
21261;DHT22;10788;47.930;9.766;2023-11-19T11:59:49;11.10;99.90
21261;DHT22;10788;47.930;9.766;2023-11-19T12:02:22;11.10;99.90
21261;DHT22;10788;47.930;9.766;2023-11-19T12:04:50;11.20;99.90
21261;DHT22;10788;47.930;9.766;2023-11-19T12:07:18;11.20;99.90
21261;DHT22;10788;47.930;9.766;2023-11-19T12:09:52;11.20;99.90
21261;DHT22;10788;47.930;9.766;2023-11-19T12:12:22;11.20;99.90
21261;DHT22;10788;47.930;9.766;2023-11-19T12:15:05;11.30;99.90
21261;DHT22;10788;47.930;9.766;2023-11-19T12:20:00;11.30;99.90
21261;DHT22;10788;47.930;9.766;2023-11-19T12:22:26;11.30;99.90
21261;DHT22;10788;47.930;9.766;2023-11-19T12:24:54;11.30;99.90
21261;DHT22;10788;47.930;9.766;2023-11-19T12:27:20;11.30;99.90
21261;DHT22;10788;47.930;9.766;2023-11-19T12:29:48;11.40;99.90
21261;DHT22;10788;47.930;9.766;2023-11-19T12:32:14;11.40;99.90
21261;DHT22;10788;47.930;9.766;2023-11-19T12:34:39;11.40;99.90
21261;DHT22;10788;47.930;9.766;2023-11-19T12:37:05;11.40;99.90
21261;DHT22;10788;47.930;9.766;2023-11-19T12:39:31;11.40;99.90
21261;DHT22;10788;47.930;9.766;2023-11-19T12:41:57;11.40;99.90
21261;DHT22;10788;47.930;9.766;2023-11-19T12:44:27;11.40;99.90
21261;DHT22;10788;47.930;9.766;2023-11-19T12:49:26;11.50;99.90
21261;DHT22;10788;47.930;9.766;2023-11-19T12:51:52;11.40;99.90
21261;DHT22;10788;47.930;9.766;2023-11-19T12:54:18;11.50;99.90
21261;DHT22;10788;47.930;9.766;2023-11-19T12:56:53;11.50;99.90
21261;DHT22;10788;47.930;9.766;2023-11-19T12:59:19;11.40;99.90
21261;DHT22;10788;47.930;9.766;2023-11-19T13:01:57;11.40;99.90
21261;DHT22;10788;47.930;9.766;2023-11-19T13:04:28;11.40;99.90
21261;DHT22;10788;47.930;9.766;2023-11-19T13:06:54;11.40;99.90
21261;DHT22;10788;47.930;9.766;2023-11-19T13:09:24;11.40;99.90
21261;DHT22;10788;47.930;9.766;2023-11-19T13:11:53;11.40;99.90
21261;DHT22;10788;47.930;9.766;2023-11-19T13:14:19;11.40;99.90
21261;DHT22;10788;47.930;9.766;2023-11-19T13:16:45;11.50;99.90
21261;DHT22;10788;47.930;9.766;2023-11-19T13:19:12;11.40;99.90
21261;DHT22;10788;47.930;9.766;2023-11-19T13:21:38;11.40;99.90
21261;DHT22;10788;47.930;9.766;2023-11-19T13:24:06;11.40;99.90
21261;DHT22;10788;47.930;9.766;2023-11-19T13:26:31;11.40;99.90
21261;DHT22;10788;47.930;9.766;2023-11-19T13:28:57;11.40;99.90
21261;DHT22;10788;47.930;9.766;2023-11-19T13:31:23;11.40;99.90
21261;DHT22;10788;47.930;9.766;2023-11-19T13:33:48;11.50;99.90
21261;DHT22;10788;47.930;9.766;2023-11-19T13:36:14;11.40;99.90
21261;DHT22;10788;47.930;9.766;2023-11-19T13:38:40;11.40;99.90
21261;DHT22;10788;47.930;9.766;2023-11-19T13:41:07;11.40;99.90
21261;DHT22;10788;47.930;9.766;2023-11-19T13:43:35;11.40;99.90
21261;DHT22;10788;47.930;9.766;2023-11-19T13:46:01;11.40;99.90
21261;DHT22;10788;47.930;9.766;2023-11-19T13:48:29;11.40;99.90
21261;DHT22;10788;47.930;9.766;2023-11-19T13:50:55;11.50;99.90
21261;DHT22;10788;47.930;9.766;2023-11-19T13:53:21;11.50;99.90
21261;DHT22;10788;47.930;9.766;2023-11-19T13:55:48;11.50;99.90
21261;DHT22;10788;47.930;9.766;2023-11-19T13:58:13;11.50;99.90
21261;DHT22;10788;47.930;9.766;2023-11-19T14:00:39;11.60;99.90
21261;DHT22;10788;47.930;9.766;2023-11-19T14:03:07;11.50;99.90
21261;DHT22;10788;47.930;9.766;2023-11-19T14:05:33;11.50;99.90
21261;DHT22;10788;47.930;9.766;2023-11-19T14:07:58;11.60;99.90
21261;DHT22;10788;47.930;9.766;2023-11-19T14:10:24;11.60;99.90
21261;DHT22;10788;47.930;9.766;2023-11-19T14:12:50;11.50;99.90
21261;DHT22;10788;47.930;9.766;2023-11-19T14:15:15;11.50;99.90
21261;DHT22;10788;47.930;9.766;2023-11-19T14:17:44;11.60;99.90
21261;DHT22;10788;47.930;9.766;2023-11-19T14:20:10;11.60;99.90
21261;DHT22;10788;47.930;9.766;2023-11-19T14:22:43;11.50;99.90
21261;DHT22;10788;47.930;9.766;2023-11-19T14:25:09;11.50;99.90
21261;DHT22;10788;47.930;9.766;2023-11-19T14:27:40;11.60;99.90
21261;DHT22;10788;47.930;9.766;2023-11-19T14:30:07;11.60;99.90
21261;DHT22;10788;47.930;9.766;2023-11-19T14:32:35;11.50;99.90
21261;DHT22;10788;47.930;9.766;2023-11-19T14:35:00;11.60;99.90
21261;DHT22;10788;47.930;9.766;2023-11-19T14:37:26;11.50;99.90
21261;DHT22;10788;47.930;9.766;2023-11-19T14:39:52;11.50;99.90
21261;DHT22;10788;47.930;9.766;2023-11-19T14:42:17;11.40;99.90
21261;DHT22;10788;47.930;9.766;2023-11-19T14:44:43;11.40;99.90
21261;DHT22;10788;47.930;9.766;2023-11-19T14:47:09;11.40;99.90
21261;DHT22;10788;47.930;9.766;2023-11-19T14:49:35;11.50;99.90
21261;DHT22;10788;47.930;9.766;2023-11-19T14:52:03;11.40;99.90
21261;DHT22;10788;47.930;9.766;2023-11-19T14:54:28;11.40;99.90
21261;DHT22;10788;47.930;9.766;2023-11-19T14:56:54;11.40;99.90
21261;DHT22;10788;47.930;9.766;2023-11-19T14:59:20;11.40;99.90
21261;DHT22;10788;47.930;9.766;2023-11-19T15:01:45;11.40;99.90
21261;DHT22;10788;47.930;9.766;2023-11-19T15:04:11;11.40;99.90
21261;DHT22;10788;47.930;9.766;2023-11-19T15:06:37;11.40;99.90
21261;DHT22;10788;47.930;9.766;2023-11-19T15:09:04;11.40;99.90
21261;DHT22;10788;47.930;9.766;2023-11-19T15:11:29;11.40;99.90
21261;DHT22;10788;47.930;9.766;2023-11-19T15:13:56;11.40;99.90
21261;DHT22;10788;47.930;9.766;2023-11-19T15:16:21;11.40;99.90
21261;DHT22;10788;47.930;9.766;2023-11-19T15:18:57;11.30;99.90
21261;DHT22;10788;47.930;9.766;2023-11-19T15:21:27;11.30;99.90
21261;DHT22;10788;47.930;9.766;2023-11-19T15:23:54;11.30;99.90
21261;DHT22;10788;47.930;9.766;2023-11-19T15:26:20;11.40;99.90
21261;DHT22;10788;47.930;9.766;2023-11-19T15:28:46;11.20;99.90
21261;DHT22;10788;47.930;9.766;2023-11-19T15:31:12;11.20;99.90
21261;DHT22;10788;47.930;9.766;2023-11-19T15:33:38;11.10;99.90
21261;DHT22;10788;47.930;9.766;2023-11-19T15:36:05;11.20;99.90
21261;DHT22;10788;47.930;9.766;2023-11-19T15:38:33;11.20;99.90
21261;DHT22;10788;47.930;9.766;2023-11-19T15:40:59;11.10;99.90
21261;DHT22;10788;47.930;9.766;2023-11-19T15:43:25;11.10;99.90
21261;DHT22;10788;47.930;9.766;2023-11-19T15:45:50;11.10;99.90
21261;DHT22;10788;47.930;9.766;2023-11-19T15:48:16;10.90;99.90
21261;DHT22;10788;47.930;9.766;2023-11-19T15:50:43;11.10;99.90
21261;DHT22;10788;47.930;9.766;2023-11-19T15:53:10;11.00;99.90
21261;DHT22;10788;47.930;9.766;2023-11-19T15:55:36;10.90;99.90
21261;DHT22;10788;47.930;9.766;2023-11-19T15:58:01;11.00;99.90
21261;DHT22;10788;47.930;9.766;2023-11-19T16:00:27;10.90;99.90